Accueil
METAR-TAF:

METAR-TAF

Aéroports :

Aéroport des Abruzzes

Pescara, Italie

latitude: 42-26N, longitude: 014-12E, altitude: 10 m

Observation

Le bulletin a été fait il y a 42 minutes, à 01:20 UTC
Vent 2 kt de direction variable
Température 10°C
Humidité 71%
Pression 1002 hPa
Visibilité 10 km ou plus

METAR: LIBP 050120Z AUTO VRB02KT 9999 OVC200/// 10/05 Q1002

Heure: 03:02 (02:02 UTC)

Prévision

Le bulletin a été fait il y a 3 heures et 2 minutes, à 23:00 UTC
Prévision valable du 05 à 00 UTC au 05 à 24 UTC
Vent 5 kt de direction variable
Visibilité: 8000 m
Nuages épars à une hauteur de 2000 ft
Evoluant progressivement
du 05 à 10 UTC au 05 à 12 UTC
Vent 10 kt de sud

TAF: LIBP 042300Z 0500/0524 VRB05KT 8000 SCT020 BECMG 0510/0512 18010KT

Observations et prévisions météorologiques de plus de 4000 aéroports (messages METAR et TAF).

Les stations disponibles sont représentées par des disques jaunes et rouges sur la carte.

Passer la souris dessus pour voir le nom de la station.

Cliquer dessus pour voir les observations et prévisions météorologiques.

Pour changer de carte: cliquez sur les boutons verts avec une croix noire pour zoomer, sur le bouton vert avec un tiret pour effectuer un zoom arrière, ou sur les flèches vertes pour les cartes adjacentes.


METAR-TAF: